sensor_id;sensor_type;location;lat;lon;timestamp;P1;durP1;ratioP1;P2;durP2;ratioP2
17147;SDS011;8689;47.364;8.796;2023-06-10T00:00:44;9.20;;;6.17;;
17147;SDS011;8689;47.364;8.796;2023-06-10T00:03:27;5.83;;;5.03;;
17147;SDS011;8689;47.364;8.796;2023-06-10T00:05:56;6.57;;;5.40;;
17147;SDS011;8689;47.364;8.796;2023-06-10T00:08:34;6.60;;;5.30;;
17147;SDS011;8689;47.364;8.796;2023-06-10T00:11:17;5.23;;;4.67;;
17147;SDS011;8689;47.364;8.796;2023-06-10T00:14:04;7.13;;;5.60;;
17147;SDS011;8689;47.364;8.796;2023-06-10T00:16:47;5.67;;;4.80;;
17147;SDS011;8689;47.364;8.796;2023-06-10T00:19:29;6.73;;;4.97;;
17147;SDS011;8689;47.364;8.796;2023-06-10T00:25:29;6.17;;;5.30;;
17147;SDS011;8689;47.364;8.796;2023-06-10T00:28:07;6.83;;;5.57;;
17147;SDS011;8689;47.364;8.796;2023-06-10T00:31:01;9.00;;;5.20;;
17147;SDS011;8689;47.364;8.796;2023-06-10T00:34:03;6.97;;;5.10;;
17147;SDS011;8689;47.364;8.796;2023-06-10T00:36:31;8.60;;;5.20;;
17147;SDS011;8689;47.364;8.796;2023-06-10T00:39:14;10.13;;;6.07;;
17147;SDS011;8689;47.364;8.796;2023-06-10T00:45:14;5.60;;;4.70;;
17147;SDS011;8689;47.364;8.796;2023-06-10T00:48:06;6.07;;;4.90;;
17147;SDS011;8689;47.364;8.796;2023-06-10T00:51:03;5.67;;;5.13;;
17147;SDS011;8689;47.364;8.796;2023-06-10T00:53:34;8.63;;;5.50;;
17147;SDS011;8689;47.364;8.796;2023-06-10T00:59:27;6.30;;;5.20;;
17147;SDS011;8689;47.364;8.796;2023-06-10T01:02:17;8.43;;;5.07;;
17147;SDS011;8689;47.364;8.796;2023-06-10T01:08:17;6.03;;;5.13;;
17147;SDS011;8689;47.364;8.796;2023-06-10T01:10:59;5.97;;;4.70;;
17147;SDS011;8689;47.364;8.796;2023-06-10T01:13:30;6.63;;;5.33;;
17147;SDS011;8689;47.364;8.796;2023-06-10T01:16:01;6.07;;;5.27;;
17147;SDS011;8689;47.364;8.796;2023-06-10T01:18:47;6.20;;;5.60;;
17147;SDS011;8689;47.364;8.796;2023-06-10T01:34:25;6.50;;;5.83;;
17147;SDS011;8689;47.364;8.796;2023-06-10T01:37:34;8.40;;;5.03;;
17147;SDS011;8689;47.364;8.796;2023-06-10T01:40:25;5.17;;;4.67;;
17147;SDS011;8689;47.364;8.796;2023-06-10T01:43:22;5.47;;;4.97;;
17147;SDS011;8689;47.364;8.796;2023-06-10T01:46:07;7.10;;;5.20;;
17147;SDS011;8689;47.364;8.796;2023-06-10T01:48:45;8.47;;;5.67;;
17147;SDS011;8689;47.364;8.796;2023-06-10T01:51:27;6.43;;;5.83;;
17147;SDS011;8689;47.364;8.796;2023-06-10T01:57:44;8.27;;;5.73;;
17147;SDS011;8689;47.364;8.796;2023-06-10T02:00:20;6.60;;;5.90;;
17147;SDS011;8689;47.364;8.796;2023-06-10T02:02:56;6.73;;;6.10;;
17147;SDS011;8689;47.364;8.796;2023-06-10T02:05:51;6.30;;;5.70;;
17147;SDS011;8689;47.364;8.796;2023-06-10T02:11:43;6.60;;;5.77;;
17147;SDS011;8689;47.364;8.796;2023-06-10T02:17:15;7.50;;;5.60;;
17147;SDS011;8689;47.364;8.796;2023-06-10T02:19:52;6.67;;;5.97;;
17147;SDS011;8689;47.364;8.796;2023-06-10T02:25:51;6.60;;;5.87;;
17147;SDS011;8689;47.364;8.796;2023-06-10T02:28:42;6.43;;;5.83;;
17147;SDS011;8689;47.364;8.796;2023-06-10T02:31:18;9.53;;;7.07;;
17147;SDS011;8689;47.364;8.796;2023-06-10T02:33:48;6.67;;;5.87;;
17147;SDS011;8689;47.364;8.796;2023-06-10T02:36:29;11.40;;;6.90;;
17147;SDS011;8689;47.364;8.796;2023-06-10T02:38:56;9.77;;;6.40;;
17147;SDS011;8689;47.364;8.796;2023-06-10T02:41:26;6.33;;;5.70;;
17147;SDS011;8689;47.364;8.796;2023-06-10T02:43:58;7.77;;;6.33;;
17147;SDS011;8689;47.364;8.796;2023-06-10T02:49:35;8.30;;;6.20;;
17147;SDS011;8689;47.364;8.796;2023-06-10T02:52:12;6.90;;;6.20;;
17147;SDS011;8689;47.364;8.796;2023-06-10T02:54:55;8.20;;;6.00;;
17147;SDS011;8689;47.364;8.796;2023-06-10T03:00:44;8.83;;;6.70;;
17147;SDS011;8689;47.364;8.796;2023-06-10T03:03:16;7.70;;;6.97;;
17147;SDS011;8689;47.364;8.796;2023-06-10T03:05:43;7.70;;;6.03;;
17147;SDS011;8689;47.364;8.796;2023-06-10T03:08:10;9.07;;;6.60;;
17147;SDS011;8689;47.364;8.796;2023-06-10T03:10:38;8.80;;;6.03;;
17147;SDS011;8689;47.364;8.796;2023-06-10T03:13:05;8.23;;;6.90;;
17147;SDS011;8689;47.364;8.796;2023-06-10T03:15:37;7.90;;;6.73;;
17147;SDS011;8689;47.364;8.796;2023-06-10T03:18:17;9.93;;;7.90;;
17147;SDS011;8689;47.364;8.796;2023-06-10T03:20:50;8.93;;;6.77;;
17147;SDS011;8689;47.364;8.796;2023-06-10T03:23:22;9.17;;;6.63;;
17147;SDS011;8689;47.364;8.796;2023-06-10T03:25:49;8.90;;;7.20;;
17147;SDS011;8689;47.364;8.796;2023-06-10T03:28:16;8.07;;;7.33;;
17147;SDS011;8689;47.364;8.796;2023-06-10T03:30:53;8.97;;;6.23;;
17147;SDS011;8689;47.364;8.796;2023-06-10T03:33:30;7.80;;;6.20;;
17147;SDS011;8689;47.364;8.796;2023-06-10T03:38:53;8.27;;;7.40;;
17147;SDS011;8689;47.364;8.796;2023-06-10T03:41:22;8.60;;;7.53;;
17147;SDS011;8689;47.364;8.796;2023-06-10T03:43:52;8.33;;;7.53;;
17147;SDS011;8689;47.364;8.796;2023-06-10T03:46:20;7.40;;;6.70;;
17147;SDS011;8689;47.364;8.796;2023-06-10T03:48:56;9.77;;;7.00;;
17147;SDS011;8689;47.364;8.796;2023-06-10T03:51:28;7.13;;;6.47;;
17147;SDS011;8689;47.364;8.796;2023-06-10T03:54:14;8.60;;;7.73;;
17147;SDS011;8689;47.364;8.796;2023-06-10T03:56:42;9.93;;;6.43;;
17147;SDS011;8689;47.364;8.796;2023-06-10T03:59:12;8.30;;;6.93;;
17147;SDS011;8689;47.364;8.796;2023-06-10T04:01:40;10.77;;;7.60;;
17147;SDS011;8689;47.364;8.796;2023-06-10T04:04:11;8.73;;;7.27;;
17147;SDS011;8689;47.364;8.796;2023-06-10T04:06:40;8.00;;;7.20;;
17147;SDS011;8689;47.364;8.796;2023-06-10T04:09:43;8.07;;;7.27;;
17147;SDS011;8689;47.364;8.796;2023-06-10T04:12:30;10.83;;;6.37;;
17147;SDS011;8689;47.364;8.796;2023-06-10T04:15:05;13.60;;;7.03;;
17147;SDS011;8689;47.364;8.796;2023-06-10T04:17:36;8.20;;;7.37;;
17147;SDS011;8689;47.364;8.796;2023-06-10T04:20:15;8.20;;;7.33;;
17147;SDS011;8689;47.364;8.796;2023-06-10T04:22:43;8.10;;;7.30;;
17147;SDS011;8689;47.364;8.796;2023-06-10T04:25:11;6.87;;;6.17;;
17147;SDS011;8689;47.364;8.796;2023-06-10T04:27:45;7.53;;;6.83;;
17147;SDS011;8689;47.364;8.796;2023-06-10T04:30:18;9.40;;;7.20;;
17147;SDS011;8689;47.364;8.796;2023-06-10T04:32:45;8.73;;;7.80;;
17147;SDS011;8689;47.364;8.796;2023-06-10T04:35:15;10.17;;;7.20;;
17147;SDS011;8689;47.364;8.796;2023-06-10T04:41:40;9.13;;;8.23;;
17147;SDS011;8689;47.364;8.796;2023-06-10T04:44:47;7.93;;;7.13;;
17147;SDS011;8689;47.364;8.796;2023-06-10T04:47:17;7.10;;;6.40;;
17147;SDS011;8689;47.364;8.796;2023-06-10T05:08:24;8.03;;;7.23;;
17147;SDS011;8689;47.364;8.796;2023-06-10T05:14:16;8.77;;;6.63;;
17147;SDS011;8689;47.364;8.796;2023-06-10T05:16:53;9.93;;;7.87;;
17147;SDS011;8689;47.364;8.796;2023-06-10T05:19:51;8.57;;;7.67;;
17147;SDS011;8689;47.364;8.796;2023-06-10T05:23:40;11.93;;;8.60;;
17147;SDS011;8689;47.364;8.796;2023-06-10T05:25:37;13.13;;;8.47;;
17147;SDS011;8689;47.364;8.796;2023-06-10T05:28:04;14.07;;;9.20;;
17147;SDS011;8689;47.364;8.796;2023-06-10T06:30:00;11.70;;;5.68;;
17147;SDS011;8689;47.364;8.796;2023-06-10T06:32:28;10.80;;;7.68;;
17147;SDS011;8689;47.364;8.796;2023-06-10T06:34:55;7.32;;;6.60;;
17147;SDS011;8689;47.364;8.796;2023-06-10T06:37:22;7.70;;;6.47;;
17147;SDS011;8689;47.364;8.796;2023-06-10T06:39:55;8.52;;;6.30;;
17147;SDS011;8689;47.364;8.796;2023-06-10T06:42:24;8.88;;;7.22;;
17147;SDS011;8689;47.364;8.796;2023-06-10T06:44:51;8.32;;;6.65;;
17147;SDS011;8689;47.364;8.796;2023-06-10T06:47:21;7.78;;;6.63;;
17147;SDS011;8689;47.364;8.796;2023-06-10T06:49:50;7.07;;;5.72;;
17147;SDS011;8689;47.364;8.796;2023-06-10T06:52:19;7.55;;;6.00;;
17147;SDS011;8689;47.364;8.796;2023-06-10T06:54:47;9.10;;;6.45;;
17147;SDS011;8689;47.364;8.796;2023-06-10T06:57:14;7.72;;;6.60;;
17147;SDS011;8689;47.364;8.796;2023-06-10T06:59:42;7.82;;;7.03;;
17147;SDS011;8689;47.364;8.796;2023-06-10T07:02:10;7.95;;;6.75;;
17147;SDS011;8689;47.364;8.796;2023-06-10T08:29:50;15.93;;;7.90;;
17147;SDS011;8689;47.364;8.796;2023-06-10T08:36:35;8.13;;;7.18;;
17147;SDS011;8689;47.364;8.796;2023-06-10T08:43:07;8.40;;;7.53;;
17147;SDS011;8689;47.364;8.796;2023-06-10T08:49:31;9.27;;;7.63;;
17147;SDS011;8689;47.364;8.796;2023-06-10T08:55:38;9.93;;;7.90;;
17147;SDS011;8689;47.364;8.796;2023-06-10T08:58:09;11.13;;;7.85;;
17147;SDS011;8689;47.364;8.796;2023-06-10T09:00:40;11.02;;;7.72;;
17147;SDS011;8689;47.364;8.796;2023-06-10T09:34:20;8.43;;;6.63;;
17147;SDS011;8689;47.364;8.796;2023-06-10T09:44:02;9.93;;;7.13;;
17147;SDS011;8689;47.364;8.796;2023-06-10T09:46:37;7.53;;;6.20;;
17147;SDS011;8689;47.364;8.796;2023-06-10T09:49:15;11.25;;;7.53;;
17147;SDS011;8689;47.364;8.796;2023-06-10T09:51:49;8.05;;;7.28;;
17147;SDS011;8689;47.364;8.796;2023-06-10T09:54:17;10.50;;;8.07;;
17147;SDS011;8689;47.364;8.796;2023-06-10T09:56:46;9.95;;;8.80;;
17147;SDS011;8689;47.364;8.796;2023-06-10T09:59:14;10.07;;;7.28;;
17147;SDS011;8689;47.364;8.796;2023-06-10T10:01:41;9.52;;;7.90;;
17147;SDS011;8689;47.364;8.796;2023-06-10T10:04:11;11.20;;;8.02;;
17147;SDS011;8689;47.364;8.796;2023-06-10T10:07:15;9.25;;;8.25;;
17147;SDS011;8689;47.364;8.796;2023-06-10T10:10:21;10.88;;;7.82;;
17147;SDS011;8689;47.364;8.796;2023-06-10T10:12:59;7.53;;;6.72;;
17147;SDS011;8689;47.364;8.796;2023-06-10T10:19:04;11.45;;;6.93;;
17147;SDS011;8689;47.364;8.796;2023-06-10T10:24:59;9.25;;;7.28;;
17147;SDS011;8689;47.364;8.796;2023-06-10T10:27:47;8.88;;;7.88;;
17147;SDS011;8689;47.364;8.796;2023-06-10T10:30:25;10.05;;;6.85;;
17147;SDS011;8689;47.364;8.796;2023-06-10T10:33:20;11.43;;;7.70;;
17147;SDS011;8689;47.364;8.796;2023-06-10T10:36:07;9.52;;;6.93;;
17147;SDS011;8689;47.364;8.796;2023-06-10T10:45:23;7.25;;;6.53;;
17147;SDS011;8689;47.364;8.796;2023-06-10T10:47:54;11.35;;;7.57;;
17147;SDS011;8689;47.364;8.796;2023-06-10T11:03:48;8.35;;;7.30;;
17147;SDS011;8689;47.364;8.796;2023-06-10T11:06:18;8.65;;;6.63;;
17147;SDS011;8689;47.364;8.796;2023-06-10T11:12:23;7.15;;;6.45;;
17147;SDS011;8689;47.364;8.796;2023-06-10T11:26:06;6.97;;;6.20;;
17147;SDS011;8689;47.364;8.796;2023-06-10T11:31:46;10.15;;;6.05;;
17147;SDS011;8689;47.364;8.796;2023-06-10T11:34:22;6.78;;;6.07;;
17147;SDS011;8689;47.364;8.796;2023-06-10T11:36:52;6.82;;;6.13;;
17147;SDS011;8689;47.364;8.796;2023-06-10T11:39:28;6.13;;;5.63;;
17147;SDS011;8689;47.364;8.796;2023-06-10T11:41:56;6.03;;;5.53;;
17147;SDS011;8689;47.364;8.796;2023-06-10T11:44:27;7.90;;;5.97;;
17147;SDS011;8689;47.364;8.796;2023-06-10T11:47:03;6.20;;;5.43;;
17147;SDS011;8689;47.364;8.796;2023-06-10T11:49:32;6.72;;;5.28;;
17147;SDS011;8689;47.364;8.796;2023-06-10T11:52:16;6.35;;;5.00;;
17147;SDS011;8689;47.364;8.796;2023-06-10T12:03:39;6.93;;;6.22;;
17147;SDS011;8689;47.364;8.796;2023-06-10T12:09:23;6.80;;;6.10;;
17147;SDS011;8689;47.364;8.796;2023-06-10T12:13:45;5.72;;;5.07;;
17147;SDS011;8689;47.364;8.796;2023-06-10T12:15:23;6.28;;;5.20;;
17147;SDS011;8689;47.364;8.796;2023-06-10T12:44:44;5.85;;;5.18;;
17147;SDS011;8689;47.364;8.796;2023-06-10T12:50:34;6.13;;;4.60;;
17147;SDS011;8689;47.364;8.796;2023-06-10T12:56:37;5.25;;;4.30;;
17147;SDS011;8689;47.364;8.796;2023-06-10T12:59:27;5.20;;;3.92;;
17147;SDS011;8689;47.364;8.796;2023-06-10T13:08:51;6.72;;;4.88;;
17147;SDS011;8689;47.364;8.796;2023-06-10T13:52:22;8.15;;;4.70;;
17147;SDS011;8689;47.364;8.796;2023-06-10T14:01:23;6.95;;;4.93;;
17147;SDS011;8689;47.364;8.796;2023-06-10T14:03:50;5.47;;;4.95;;
17147;SDS011;8689;47.364;8.796;2023-06-10T14:06:18;5.32;;;4.82;;
17147;SDS011;8689;47.364;8.796;2023-06-10T14:08:46;5.47;;;4.85;;
17147;SDS011;8689;47.364;8.796;2023-06-10T14:11:13;5.68;;;5.18;;
17147;SDS011;8689;47.364;8.796;2023-06-10T14:13:48;5.63;;;3.80;;
17147;SDS011;8689;47.364;8.796;2023-06-10T14:16:24;7.72;;;4.75;;
17147;SDS011;8689;47.364;8.796;2023-06-10T14:18:54;5.10;;;4.60;;
17147;SDS011;8689;47.364;8.796;2023-06-10T14:21:39;5.82;;;4.68;;
17147;SDS011;8689;47.364;8.796;2023-06-10T14:24:07;5.80;;;4.55;;
17147;SDS011;8689;47.364;8.796;2023-06-10T14:26:34;7.32;;;4.95;;
17147;SDS011;8689;47.364;8.796;2023-06-10T14:29:01;5.50;;;4.75;;
17147;SDS011;8689;47.364;8.796;2023-06-10T14:31:29;11.20;;;4.97;;
17147;SDS011;8689;47.364;8.796;2023-06-10T14:34:06;8.65;;;6.20;;
17147;SDS011;8689;47.364;8.796;2023-06-10T14:36:47;4.63;;;4.22;;
17147;SDS011;8689;47.364;8.796;2023-06-10T14:39:14;4.07;;;3.60;;
17147;SDS011;8689;47.364;8.796;2023-06-10T14:41:42;4.57;;;4.18;;
17147;SDS011;8689;47.364;8.796;2023-06-10T14:44:10;10.13;;;5.57;;
17147;SDS011;8689;47.364;8.796;2023-06-10T14:46:54;5.50;;;4.53;;
17147;SDS011;8689;47.364;8.796;2023-06-10T14:49:55;4.47;;;4.07;;
17147;SDS011;8689;47.364;8.796;2023-06-10T14:53:18;6.10;;;4.75;;
17147;SDS011;8689;47.364;8.796;2023-06-10T14:55:47;5.20;;;3.80;;
17147;SDS011;8689;47.364;8.796;2023-06-10T14:58:24;5.38;;;3.88;;
17147;SDS011;8689;47.364;8.796;2023-06-10T15:00:51;7.75;;;5.40;;
17147;SDS011;8689;47.364;8.796;2023-06-10T15:03:20;6.63;;;4.65;;
17147;SDS011;8689;47.364;8.796;2023-06-10T15:06:06;5.82;;;4.38;;
17147;SDS011;8689;47.364;8.796;2023-06-10T15:08:35;5.07;;;4.55;;
17147;SDS011;8689;47.364;8.796;2023-06-10T15:11:02;8.43;;;5.43;;
17147;SDS011;8689;47.364;8.796;2023-06-10T15:13:30;6.85;;;5.05;;
17147;SDS011;8689;47.364;8.796;2023-06-10T15:15:57;5.25;;;4.47;;
17147;SDS011;8689;47.364;8.796;2023-06-10T15:18:25;5.35;;;4.85;;
17147;SDS011;8689;47.364;8.796;2023-06-10T15:20:53;5.75;;;4.53;;
17147;SDS011;8689;47.364;8.796;2023-06-10T15:23:20;7.32;;;4.80;;
17147;SDS011;8689;47.364;8.796;2023-06-10T15:25:49;4.93;;;4.30;;
17147;SDS011;8689;47.364;8.796;2023-06-10T15:28:17;5.20;;;4.03;;
17147;SDS011;8689;47.364;8.796;2023-06-10T15:30:44;6.82;;;5.00;;
17147;SDS011;8689;47.364;8.796;2023-06-10T15:33:12;5.03;;;4.55;;
17147;SDS011;8689;47.364;8.796;2023-06-10T15:35:41;4.35;;;3.95;;
17147;SDS011;8689;47.364;8.796;2023-06-10T15:38:18;5.25;;;4.75;;
17147;SDS011;8689;47.364;8.796;2023-06-10T15:40:46;5.53;;;5.03;;
17147;SDS011;8689;47.364;8.796;2023-06-10T15:43:16;5.32;;;4.82;;
17147;SDS011;8689;47.364;8.796;2023-06-10T15:49:39;5.45;;;4.95;;
17147;SDS011;8689;47.364;8.796;2023-06-10T15:52:05;5.00;;;4.55;;
17147;SDS011;8689;47.364;8.796;2023-06-10T15:54:58;8.50;;;5.00;;
17147;SDS011;8689;47.364;8.796;2023-06-10T15:58:06;7.13;;;4.50;;
17147;SDS011;8689;47.364;8.796;2023-06-10T16:00:37;5.32;;;4.82;;
17147;SDS011;8689;47.364;8.796;2023-06-10T16:03:09;7.72;;;4.32;;
17147;SDS011;8689;47.364;8.796;2023-06-10T16:06:17;5.82;;;4.57;;
17147;SDS011;8689;47.364;8.796;2023-06-10T16:09:04;4.75;;;4.00;;
17147;SDS011;8689;47.364;8.796;2023-06-10T16:11:32;5.30;;;4.80;;
17147;SDS011;8689;47.364;8.796;2023-06-10T16:14:03;5.75;;;3.78;;
17147;SDS011;8689;47.364;8.796;2023-06-10T16:20:38;4.07;;;3.67;;
17147;SDS011;8689;47.364;8.796;2023-06-10T16:23:40;5.28;;;4.35;;
17147;SDS011;8689;47.364;8.796;2023-06-10T16:33:16;6.88;;;4.78;;
17147;SDS011;8689;47.364;8.796;2023-06-10T16:35:45;4.88;;;4.20;;
17147;SDS011;8689;47.364;8.796;2023-06-10T16:38:29;4.78;;;4.20;;
17147;SDS011;8689;47.364;8.796;2023-06-10T16:46:52;5.05;;;4.20;;
17147;SDS011;8689;47.364;8.796;2023-06-10T16:51:41;4.45;;;3.88;;
17147;SDS011;8689;47.364;8.796;2023-06-10T16:57:00;4.78;;;4.13;;
17147;SDS011;8689;47.364;8.796;2023-06-10T16:59:28;4.90;;;4.40;;
17147;SDS011;8689;47.364;8.796;2023-06-10T17:01:56;4.72;;;4.32;;
17147;SDS011;8689;47.364;8.796;2023-06-10T17:04:41;4.40;;;4.00;;
17147;SDS011;8689;47.364;8.796;2023-06-10T17:07:18;4.53;;;4.13;;
17147;SDS011;8689;47.364;8.796;2023-06-10T17:09:56;4.43;;;4.03;;
17147;SDS011;8689;47.364;8.796;2023-06-10T17:12:30;5.35;;;4.53;;
17147;SDS011;8689;47.364;8.796;2023-06-10T17:14:58;7.50;;;4.90;;
17147;SDS011;8689;47.364;8.796;2023-06-10T17:17:27;4.72;;;4.20;;
17147;SDS011;8689;47.364;8.796;2023-06-10T17:19:55;4.47;;;4.07;;
17147;SDS011;8689;47.364;8.796;2023-06-10T17:22:24;9.93;;;4.25;;
17147;SDS011;8689;47.364;8.796;2023-06-10T17:24:51;5.88;;;3.83;;
17147;SDS011;8689;47.364;8.796;2023-06-10T17:27:19;4.15;;;3.75;;
17147;SDS011;8689;47.364;8.796;2023-06-10T17:29:47;6.30;;;3.97;;
17147;SDS011;8689;47.364;8.796;2023-06-10T17:32:14;5.22;;;4.45;;
17147;SDS011;8689;47.364;8.796;2023-06-10T17:34:42;4.45;;;3.60;;
17147;SDS011;8689;47.364;8.796;2023-06-10T17:37:09;7.65;;;4.40;;
17147;SDS011;8689;47.364;8.796;2023-06-10T17:39:39;4.90;;;3.97;;
17147;SDS011;8689;47.364;8.796;2023-06-10T17:42:07;8.20;;;5.05;;
17147;SDS011;8689;47.364;8.796;2023-06-10T17:44:36;5.65;;;4.07;;
17147;SDS011;8689;47.364;8.796;2023-06-10T17:47:05;5.45;;;4.05;;
17147;SDS011;8689;47.364;8.796;2023-06-10T17:49:49;4.15;;;3.70;;
17147;SDS011;8689;47.364;8.796;2023-06-10T17:52:30;3.95;;;3.55;;
17147;SDS011;8689;47.364;8.796;2023-06-10T18:02:33;5.07;;;3.38;;
17147;SDS011;8689;47.364;8.796;2023-06-10T18:05:07;6.22;;;3.80;;
17147;SDS011;8689;47.364;8.796;2023-06-10T18:07:45;4.35;;;3.08;;
17147;SDS011;8689;47.364;8.796;2023-06-10T18:14:15;5.82;;;3.30;;
17147;SDS011;8689;47.364;8.796;2023-06-10T18:24:17;3.45;;;2.90;;
17147;SDS011;8689;47.364;8.796;2023-06-10T18:26:45;4.70;;;4.22;;
17147;SDS011;8689;47.364;8.796;2023-06-10T18:29:13;6.30;;;3.40;;
17147;SDS011;8689;47.364;8.796;2023-06-10T18:31:43;6.05;;;3.80;;
17147;SDS011;8689;47.364;8.796;2023-06-10T18:34:10;4.65;;;3.38;;
17147;SDS011;8689;47.364;8.796;2023-06-10T18:36:38;3.80;;;3.38;;
17147;SDS011;8689;47.364;8.796;2023-06-10T18:39:05;3.70;;;3.40;;
17147;SDS011;8689;47.364;8.796;2023-06-10T18:41:34;3.65;;;3.15;;
17147;SDS011;8689;47.364;8.796;2023-06-10T18:44:02;5.65;;;3.65;;
17147;SDS011;8689;47.364;8.796;2023-06-10T18:46:42;3.15;;;2.88;;
17147;SDS011;8689;47.364;8.796;2023-06-10T18:49:10;3.67;;;3.13;;
17147;SDS011;8689;47.364;8.796;2023-06-10T18:51:37;3.95;;;3.00;;
17147;SDS011;8689;47.364;8.796;2023-06-10T18:54:05;4.65;;;3.20;;
17147;SDS011;8689;47.364;8.796;2023-06-10T18:56:35;3.95;;;2.90;;
17147;SDS011;8689;47.364;8.796;2023-06-10T18:59:03;3.28;;;2.97;;
17147;SDS011;8689;47.364;8.796;2023-06-10T19:01:30;4.32;;;3.38;;
17147;SDS011;8689;47.364;8.796;2023-06-10T19:04:08;7.03;;;3.72;;
17147;SDS011;8689;47.364;8.796;2023-06-10T19:06:36;7.72;;;3.53;;
17147;SDS011;8689;47.364;8.796;2023-06-10T19:09:04;3.63;;;3.33;;
17147;SDS011;8689;47.364;8.796;2023-06-10T19:11:32;4.25;;;3.45;;
17147;SDS011;8689;47.364;8.796;2023-06-10T19:14:01;4.30;;;3.57;;
17147;SDS011;8689;47.364;8.796;2023-06-10T19:16:31;4.73;;;3.50;;
17147;SDS011;8689;47.364;8.796;2023-06-10T19:18:59;5.87;;;3.50;;
17147;SDS011;8689;47.364;8.796;2023-06-10T19:21:27;3.77;;;3.47;;
17147;SDS011;8689;47.364;8.796;2023-06-10T19:23:54;3.60;;;3.30;;
17147;SDS011;8689;47.364;8.796;2023-06-10T19:26:22;5.10;;;3.90;;
17147;SDS011;8689;47.364;8.796;2023-06-10T19:28:50;4.07;;;3.67;;
17147;SDS011;8689;47.364;8.796;2023-06-10T19:31:20;4.53;;;3.93;;
17147;SDS011;8689;47.364;8.796;2023-06-10T19:33:48;5.00;;;3.93;;
17147;SDS011;8689;47.364;8.796;2023-06-10T19:36:15;5.60;;;3.97;;
17147;SDS011;8689;47.364;8.796;2023-06-10T19:38:43;5.93;;;3.80;;
17147;SDS011;8689;47.364;8.796;2023-06-10T19:41:11;4.67;;;3.37;;
17147;SDS011;8689;47.364;8.796;2023-06-10T19:43:38;4.43;;;3.93;;
17147;SDS011;8689;47.364;8.796;2023-06-10T19:46:07;4.20;;;3.80;;
17147;SDS011;8689;47.364;8.796;2023-06-10T19:48:36;4.20;;;3.80;;
17147;SDS011;8689;47.364;8.796;2023-06-10T19:51:03;4.97;;;4.23;;
17147;SDS011;8689;47.364;8.796;2023-06-10T19:53:30;4.47;;;4.07;;
17147;SDS011;8689;47.364;8.796;2023-06-10T19:55:58;4.73;;;4.27;;
17147;SDS011;8689;47.364;8.796;2023-06-10T19:58:26;6.63;;;4.77;;
17147;SDS011;8689;47.364;8.796;2023-06-10T20:00:54;5.03;;;4.13;;
17147;SDS011;8689;47.364;8.796;2023-06-10T20:03:21;4.97;;;4.33;;
17147;SDS011;8689;47.364;8.796;2023-06-10T20:05:50;6.23;;;4.57;;
17147;SDS011;8689;47.364;8.796;2023-06-10T20:08:18;5.80;;;5.20;;
17147;SDS011;8689;47.364;8.796;2023-06-10T20:10:46;5.17;;;4.53;;
17147;SDS011;8689;47.364;8.796;2023-06-10T20:13:14;6.70;;;4.70;;
17147;SDS011;8689;47.364;8.796;2023-06-10T20:15:44;10.77;;;5.07;;
17147;SDS011;8689;47.364;8.796;2023-06-10T20:18:12;7.60;;;4.90;;
17147;SDS011;8689;47.364;8.796;2023-06-10T20:20:39;5.50;;;4.90;;
17147;SDS011;8689;47.364;8.796;2023-06-10T20:23:09;4.73;;;4.27;;
17147;SDS011;8689;47.364;8.796;2023-06-10T20:25:37;6.87;;;5.40;;
17147;SDS011;8689;47.364;8.796;2023-06-10T20:28:11;5.90;;;5.30;;
17147;SDS011;8689;47.364;8.796;2023-06-10T20:30:38;5.77;;;5.00;;
17147;SDS011;8689;47.364;8.796;2023-06-10T20:33:05;5.63;;;4.73;;
17147;SDS011;8689;47.364;8.796;2023-06-10T20:35:33;5.93;;;5.20;;
17147;SDS011;8689;47.364;8.796;2023-06-10T20:38:03;8.23;;;5.13;;
17147;SDS011;8689;47.364;8.796;2023-06-10T20:40:32;6.97;;;5.43;;
17147;SDS011;8689;47.364;8.796;2023-06-10T20:42:59;6.30;;;5.70;;
17147;SDS011;8689;47.364;8.796;2023-06-10T20:45:28;6.83;;;5.80;;
17147;SDS011;8689;47.364;8.796;2023-06-10T20:47:56;7.77;;;5.60;;
17147;SDS011;8689;47.364;8.796;2023-06-10T20:50:24;7.00;;;5.13;;
17147;SDS011;8689;47.364;8.796;2023-06-10T20:53:02;9.53;;;5.20;;
17147;SDS011;8689;47.364;8.796;2023-06-10T20:55:32;9.37;;;5.97;;
17147;SDS011;8689;47.364;8.796;2023-06-10T20:58:00;5.67;;;4.83;;
17147;SDS011;8689;47.364;8.796;2023-06-10T21:00:28;8.73;;;5.47;;
17147;SDS011;8689;47.364;8.796;2023-06-10T21:02:56;8.13;;;5.73;;
17147;SDS011;8689;47.364;8.796;2023-06-10T21:05:24;6.97;;;5.67;;
17147;SDS011;8689;47.364;8.796;2023-06-10T21:07:52;6.83;;;5.63;;
17147;SDS011;8689;47.364;8.796;2023-06-10T21:10:20;8.93;;;6.07;;
17147;SDS011;8689;47.364;8.796;2023-06-10T21:12:49;7.23;;;6.33;;
17147;SDS011;8689;47.364;8.796;2023-06-10T21:15:21;6.20;;;5.60;;
17147;SDS011;8689;47.364;8.796;2023-06-10T21:17:49;6.23;;;5.47;;
17147;SDS011;8689;47.364;8.796;2023-06-10T21:20:19;7.00;;;6.30;;
17147;SDS011;8689;47.364;8.796;2023-06-10T21:22:47;6.67;;;5.87;;
17147;SDS011;8689;47.364;8.796;2023-06-10T21:25:15;8.83;;;5.63;;
17147;SDS011;8689;47.364;8.796;2023-06-10T21:27:43;5.93;;;5.30;;
17147;SDS011;8689;47.364;8.796;2023-06-10T21:30:13;8.27;;;5.93;;
17147;SDS011;8689;47.364;8.796;2023-06-10T21:32:47;9.93;;;5.70;;
17147;SDS011;8689;47.364;8.796;2023-06-10T21:35:15;6.47;;;5.87;;
17147;SDS011;8689;47.364;8.796;2023-06-10T21:37:42;7.90;;;6.17;;
17147;SDS011;8689;47.364;8.796;2023-06-10T21:40:10;10.63;;;7.23;;
17147;SDS011;8689;47.364;8.796;2023-06-10T21:42:38;10.27;;;5.77;;
17147;SDS011;8689;47.364;8.796;2023-06-10T21:45:07;9.07;;;5.93;;
17147;SDS011;8689;47.364;8.796;2023-06-10T21:47:37;9.23;;;6.23;;
17147;SDS011;8689;47.364;8.796;2023-06-10T21:50:06;7.27;;;5.70;;
17147;SDS011;8689;47.364;8.796;2023-06-10T21:52:39;7.00;;;6.30;;
17147;SDS011;8689;47.364;8.796;2023-06-10T21:55:11;9.43;;;5.97;;
17147;SDS011;8689;47.364;8.796;2023-06-10T21:57:40;6.83;;;6.10;;
17147;SDS011;8689;47.364;8.796;2023-06-10T22:00:10;6.67;;;6.07;;
17147;SDS011;8689;47.364;8.796;2023-06-10T22:02:41;6.43;;;5.60;;
17147;SDS011;8689;47.364;8.796;2023-06-10T22:05:10;7.23;;;6.53;;
17147;SDS011;8689;47.364;8.796;2023-06-10T22:07:38;10.67;;;6.87;;
17147;SDS011;8689;47.364;8.796;2023-06-10T22:10:05;6.73;;;6.07;;
17147;SDS011;8689;47.364;8.796;2023-06-10T22:12:33;7.33;;;6.20;;
17147;SDS011;8689;47.364;8.796;2023-06-10T22:15:00;7.00;;;5.77;;
17147;SDS011;8689;47.364;8.796;2023-06-10T22:17:30;7.77;;;6.07;;
17147;SDS011;8689;47.364;8.796;2023-06-10T22:19:59;7.23;;;6.50;;
17147;SDS011;8689;47.364;8.796;2023-06-10T22:22:27;6.23;;;5.63;;
17147;SDS011;8689;47.364;8.796;2023-06-10T22:24:56;7.53;;;6.73;;
17147;SDS011;8689;47.364;8.796;2023-06-10T22:27:25;8.10;;;6.13;;
17147;SDS011;8689;47.364;8.796;2023-06-10T22:29:54;9.27;;;5.70;;
17147;SDS011;8689;47.364;8.796;2023-06-10T22:32:23;7.90;;;6.63;;
17147;SDS011;8689;47.364;8.796;2023-06-10T22:34:51;7.60;;;5.93;;
17147;SDS011;8689;47.364;8.796;2023-06-10T22:37:21;7.20;;;6.43;;
17147;SDS011;8689;47.364;8.796;2023-06-10T22:39:49;10.87;;;6.50;;
17147;SDS011;8689;47.364;8.796;2023-06-10T22:42:16;6.93;;;6.23;;
17147;SDS011;8689;47.364;8.796;2023-06-10T22:44:44;9.43;;;6.00;;
17147;SDS011;8689;47.364;8.796;2023-06-10T22:47:11;7.93;;;6.03;;
17147;SDS011;8689;47.364;8.796;2023-06-10T22:49:39;6.63;;;6.00;;
17147;SDS011;8689;47.364;8.796;2023-06-10T22:52:10;7.40;;;6.00;;
17147;SDS011;8689;47.364;8.796;2023-06-10T22:54:40;7.40;;;6.17;;
17147;SDS011;8689;47.364;8.796;2023-06-10T22:57:09;8.20;;;5.90;;
17147;SDS011;8689;47.364;8.796;2023-06-10T22:59:36;7.80;;;6.10;;
17147;SDS011;8689;47.364;8.796;2023-06-10T23:02:14;7.33;;;6.17;;
17147;SDS011;8689;47.364;8.796;2023-06-10T23:04:42;6.13;;;5.53;;
17147;SDS011;8689;47.364;8.796;2023-06-10T23:07:11;6.63;;;5.27;;
17147;SDS011;8689;47.364;8.796;2023-06-10T23:09:42;6.37;;;5.77;;
17147;SDS011;8689;47.364;8.796;2023-06-10T23:12:10;6.77;;;6.00;;
17147;SDS011;8689;47.364;8.796;2023-06-10T23:14:38;6.47;;;5.77;;
17147;SDS011;8689;47.364;8.796;2023-06-10T23:17:06;7.90;;;5.83;;
17147;SDS011;8689;47.364;8.796;2023-06-10T23:19:35;7.97;;;6.27;;